sensor_id;sensor_type;location;lat;lon;timestamp;P1;durP1;ratioP1;P2;durP2;ratioP2
3217;SDS011;1621;49.702;8.618;2023-04-15T00:02:20;5.93;;;2.43;;
3217;SDS011;1621;49.702;8.618;2023-04-15T00:04:46;4.70;;;2.83;;
3217;SDS011;1621;49.702;8.618;2023-04-15T00:07:13;4.73;;;2.50;;
3217;SDS011;1621;49.702;8.618;2023-04-15T00:09:40;4.93;;;2.30;;
3217;SDS011;1621;49.702;8.618;2023-04-15T00:12:06;5.50;;;2.47;;
3217;SDS011;1621;49.702;8.618;2023-04-15T00:14:33;5.50;;;2.30;;
3217;SDS011;1621;49.702;8.618;2023-04-15T00:17:01;5.70;;;2.60;;
3217;SDS011;1621;49.702;8.618;2023-04-15T00:19:27;3.77;;;2.30;;
3217;SDS011;1621;49.702;8.618;2023-04-15T00:21:53;3.10;;;2.20;;
3217;SDS011;1621;49.702;8.618;2023-04-15T00:24:20;4.13;;;2.23;;
3217;SDS011;1621;49.702;8.618;2023-04-15T00:26:46;4.33;;;2.33;;
3217;SDS011;1621;49.702;8.618;2023-04-15T00:29:13;3.47;;;2.20;;
3217;SDS011;1621;49.702;8.618;2023-04-15T00:31:39;5.37;;;2.30;;
3217;SDS011;1621;49.702;8.618;2023-04-15T00:34:07;5.43;;;2.20;;
3217;SDS011;1621;49.702;8.618;2023-04-15T00:36:33;3.80;;;1.80;;
3217;SDS011;1621;49.702;8.618;2023-04-15T00:39:00;2.90;;;2.00;;
3217;SDS011;1621;49.702;8.618;2023-04-15T00:41:27;5.53;;;1.90;;
3217;SDS011;1621;49.702;8.618;2023-04-15T00:43:53;2.57;;;1.63;;
3217;SDS011;1621;49.702;8.618;2023-04-15T00:46:20;4.97;;;1.93;;
3217;SDS011;1621;49.702;8.618;2023-04-15T00:48:47;3.97;;;1.90;;
3217;SDS011;1621;49.702;8.618;2023-04-15T00:51:15;3.80;;;1.90;;
3217;SDS011;1621;49.702;8.618;2023-04-15T00:53:41;3.67;;;1.93;;
3217;SDS011;1621;49.702;8.618;2023-04-15T00:56:07;4.17;;;2.37;;
3217;SDS011;1621;49.702;8.618;2023-04-15T00:58:34;3.00;;;2.00;;
3217;SDS011;1621;49.702;8.618;2023-04-15T01:01:01;3.30;;;2.00;;
3217;SDS011;1621;49.702;8.618;2023-04-15T01:03:27;3.07;;;1.90;;
3217;SDS011;1621;49.702;8.618;2023-04-15T01:05:54;4.10;;;2.20;;
3217;SDS011;1621;49.702;8.618;2023-04-15T01:08:23;4.10;;;2.10;;
3217;SDS011;1621;49.702;8.618;2023-04-15T01:10:51;2.97;;;1.77;;
3217;SDS011;1621;49.702;8.618;2023-04-15T01:13:18;4.80;;;2.47;;
3217;SDS011;1621;49.702;8.618;2023-04-15T01:15:45;3.90;;;2.40;;
3217;SDS011;1621;49.702;8.618;2023-04-15T01:18:12;4.27;;;2.07;;
3217;SDS011;1621;49.702;8.618;2023-04-15T01:20:39;3.43;;;2.10;;
3217;SDS011;1621;49.702;8.618;2023-04-15T01:23:05;3.07;;;2.27;;
3217;SDS011;1621;49.702;8.618;2023-04-15T01:25:33;2.53;;;1.57;;
3217;SDS011;1621;49.702;8.618;2023-04-15T01:28:00;3.50;;;1.93;;
3217;SDS011;1621;49.702;8.618;2023-04-15T01:30:26;2.90;;;1.80;;
3217;SDS011;1621;49.702;8.618;2023-04-15T01:32:52;4.23;;;1.63;;
3217;SDS011;1621;49.702;8.618;2023-04-15T01:35:18;3.33;;;1.80;;
3217;SDS011;1621;49.702;8.618;2023-04-15T01:37:45;3.87;;;1.87;;
3217;SDS011;1621;49.702;8.618;2023-04-15T01:40:11;4.40;;;1.90;;
3217;SDS011;1621;49.702;8.618;2023-04-15T01:42:39;3.43;;;1.60;;
3217;SDS011;1621;49.702;8.618;2023-04-15T01:45:06;3.23;;;1.60;;
3217;SDS011;1621;49.702;8.618;2023-04-15T01:47:32;3.40;;;1.70;;
3217;SDS011;1621;49.702;8.618;2023-04-15T01:49:58;4.73;;;2.93;;
3217;SDS011;1621;49.702;8.618;2023-04-15T01:52:25;3.23;;;1.80;;
3217;SDS011;1621;49.702;8.618;2023-04-15T01:54:51;4.07;;;1.90;;
3217;SDS011;1621;49.702;8.618;2023-04-15T01:57:17;2.53;;;1.77;;
3217;SDS011;1621;49.702;8.618;2023-04-15T01:59:45;8.13;;;2.43;;
3217;SDS011;1621;49.702;8.618;2023-04-15T02:02:11;4.30;;;2.73;;
3217;SDS011;1621;49.702;8.618;2023-04-15T02:04:37;3.97;;;2.77;;
3217;SDS011;1621;49.702;8.618;2023-04-15T02:07:04;5.90;;;3.17;;
3217;SDS011;1621;49.702;8.618;2023-04-15T02:09:31;7.13;;;3.40;;
3217;SDS011;1621;49.702;8.618;2023-04-15T02:11:57;5.93;;;3.40;;
3217;SDS011;1621;49.702;8.618;2023-04-15T02:14:24;10.47;;;3.40;;
3217;SDS011;1621;49.702;8.618;2023-04-15T02:16:52;7.13;;;4.00;;
3217;SDS011;1621;49.702;8.618;2023-04-15T02:19:18;7.07;;;3.60;;
3217;SDS011;1621;49.702;8.618;2023-04-15T02:21:44;7.63;;;4.20;;
3217;SDS011;1621;49.702;8.618;2023-04-15T02:24:11;7.10;;;3.30;;
3217;SDS011;1621;49.702;8.618;2023-04-15T02:26:37;8.37;;;3.80;;
3217;SDS011;1621;49.702;8.618;2023-04-15T02:29:03;5.57;;;3.10;;
3217;SDS011;1621;49.702;8.618;2023-04-15T02:31:29;3.73;;;2.30;;
3217;SDS011;1621;49.702;8.618;2023-04-15T02:34:02;3.67;;;2.30;;
3217;SDS011;1621;49.702;8.618;2023-04-15T02:36:28;3.53;;;2.47;;
3217;SDS011;1621;49.702;8.618;2023-04-15T02:38:55;3.97;;;2.30;;
3217;SDS011;1621;49.702;8.618;2023-04-15T02:41:21;4.33;;;2.47;;
3217;SDS011;1621;49.702;8.618;2023-04-15T02:43:51;5.47;;;2.70;;
3217;SDS011;1621;49.702;8.618;2023-04-15T02:46:17;4.37;;;2.70;;
3217;SDS011;1621;49.702;8.618;2023-04-15T02:48:43;4.80;;;2.53;;
3217;SDS011;1621;49.702;8.618;2023-04-15T02:51:11;4.63;;;2.83;;
3217;SDS011;1621;49.702;8.618;2023-04-15T02:53:38;4.30;;;2.30;;
3217;SDS011;1621;49.702;8.618;2023-04-15T02:56:04;2.43;;;1.60;;
3217;SDS011;1621;49.702;8.618;2023-04-15T02:58:31;4.00;;;1.80;;
3217;SDS011;1621;49.702;8.618;2023-04-15T03:00:58;3.20;;;2.13;;
3217;SDS011;1621;49.702;8.618;2023-04-15T03:03:25;4.20;;;2.00;;
3217;SDS011;1621;49.702;8.618;2023-04-15T03:05:52;3.67;;;1.87;;
3217;SDS011;1621;49.702;8.618;2023-04-15T03:08:19;2.67;;;1.80;;
3217;SDS011;1621;49.702;8.618;2023-04-15T03:10:46;4.03;;;2.00;;
3217;SDS011;1621;49.702;8.618;2023-04-15T03:13:12;2.63;;;2.10;;
3217;SDS011;1621;49.702;8.618;2023-04-15T03:15:38;4.40;;;2.40;;
3217;SDS011;1621;49.702;8.618;2023-04-15T03:18:04;8.37;;;2.77;;
3217;SDS011;1621;49.702;8.618;2023-04-15T03:20:31;3.50;;;1.90;;
3217;SDS011;1621;49.702;8.618;2023-04-15T03:22:57;2.93;;;1.73;;
3217;SDS011;1621;49.702;8.618;2023-04-15T03:25:25;6.93;;;2.57;;
3217;SDS011;1621;49.702;8.618;2023-04-15T03:27:51;2.80;;;1.87;;
3217;SDS011;1621;49.702;8.618;2023-04-15T03:30:17;4.07;;;2.00;;
3217;SDS011;1621;49.702;8.618;2023-04-15T03:32:43;3.10;;;1.80;;
3217;SDS011;1621;49.702;8.618;2023-04-15T03:35:10;2.50;;;1.77;;
3217;SDS011;1621;49.702;8.618;2023-04-15T03:37:36;3.50;;;2.20;;
3217;SDS011;1621;49.702;8.618;2023-04-15T03:40:02;3.73;;;1.93;;
3217;SDS011;1621;49.702;8.618;2023-04-15T03:42:30;2.80;;;1.90;;
3217;SDS011;1621;49.702;8.618;2023-04-15T03:44:56;3.30;;;1.83;;
3217;SDS011;1621;49.702;8.618;2023-04-15T03:47:23;4.63;;;2.20;;
3217;SDS011;1621;49.702;8.618;2023-04-15T03:49:49;2.70;;;1.80;;
3217;SDS011;1621;49.702;8.618;2023-04-15T03:52:15;2.50;;;1.73;;
3217;SDS011;1621;49.702;8.618;2023-04-15T03:54:41;4.10;;;2.13;;
3217;SDS011;1621;49.702;8.618;2023-04-15T03:57:08;2.70;;;2.00;;
3217;SDS011;1621;49.702;8.618;2023-04-15T03:59:36;2.90;;;2.07;;
3217;SDS011;1621;49.702;8.618;2023-04-15T04:02:02;4.97;;;2.67;;
3217;SDS011;1621;49.702;8.618;2023-04-15T04:04:28;4.20;;;2.60;;
3217;SDS011;1621;49.702;8.618;2023-04-15T04:06:55;5.50;;;2.60;;
3217;SDS011;1621;49.702;8.618;2023-04-15T04:09:21;4.80;;;3.27;;
3217;SDS011;1621;49.702;8.618;2023-04-15T04:11:47;10.60;;;3.60;;
3217;SDS011;1621;49.702;8.618;2023-04-15T04:14:13;4.33;;;2.90;;
3217;SDS011;1621;49.702;8.618;2023-04-15T04:16:41;3.70;;;3.00;;
3217;SDS011;1621;49.702;8.618;2023-04-15T04:19:07;6.27;;;3.27;;
3217;SDS011;1621;49.702;8.618;2023-04-15T04:21:33;5.43;;;2.73;;
3217;SDS011;1621;49.702;8.618;2023-04-15T04:24:00;4.93;;;2.90;;
3217;SDS011;1621;49.702;8.618;2023-04-15T04:26:26;5.80;;;2.80;;
3217;SDS011;1621;49.702;8.618;2023-04-15T04:28:53;4.63;;;2.93;;
3217;SDS011;1621;49.702;8.618;2023-04-15T04:31:19;7.37;;;2.80;;
3217;SDS011;1621;49.702;8.618;2023-04-15T04:33:47;5.13;;;3.10;;
3217;SDS011;1621;49.702;8.618;2023-04-15T04:36:13;4.27;;;3.70;;
3217;SDS011;1621;49.702;8.618;2023-04-15T04:38:39;7.47;;;3.27;;
3217;SDS011;1621;49.702;8.618;2023-04-15T04:41:05;3.63;;;2.57;;
3217;SDS011;1621;49.702;8.618;2023-04-15T04:43:32;3.87;;;2.83;;
3217;SDS011;1621;49.702;8.618;2023-04-15T04:45:58;7.37;;;3.40;;
3217;SDS011;1621;49.702;8.618;2023-04-15T04:48:24;4.50;;;2.80;;
3217;SDS011;1621;49.702;8.618;2023-04-15T04:50:52;4.27;;;2.77;;
3217;SDS011;1621;49.702;8.618;2023-04-15T04:53:18;4.60;;;3.03;;
3217;SDS011;1621;49.702;8.618;2023-04-15T04:55:45;4.57;;;2.67;;
3217;SDS011;1621;49.702;8.618;2023-04-15T04:58:11;4.63;;;2.67;;
3217;SDS011;1621;49.702;8.618;2023-04-15T05:00:37;4.60;;;2.97;;
3217;SDS011;1621;49.702;8.618;2023-04-15T05:03:05;3.90;;;2.53;;
3217;SDS011;1621;49.702;8.618;2023-04-15T05:05:31;3.70;;;2.30;;
3217;SDS011;1621;49.702;8.618;2023-04-15T05:07:59;3.50;;;2.50;;
3217;SDS011;1621;49.702;8.618;2023-04-15T05:10:25;6.20;;;3.10;;
3217;SDS011;1621;49.702;8.618;2023-04-15T05:12:52;3.73;;;2.40;;
3217;SDS011;1621;49.702;8.618;2023-04-15T05:15:18;5.33;;;2.43;;
3217;SDS011;1621;49.702;8.618;2023-04-15T05:17:44;3.30;;;2.33;;
3217;SDS011;1621;49.702;8.618;2023-04-15T05:20:11;5.97;;;3.30;;
3217;SDS011;1621;49.702;8.618;2023-04-15T05:22:37;4.20;;;2.67;;
3217;SDS011;1621;49.702;8.618;2023-04-15T05:25:05;6.50;;;2.80;;
3217;SDS011;1621;49.702;8.618;2023-04-15T05:27:32;4.00;;;3.30;;
3217;SDS011;1621;49.702;8.618;2023-04-15T05:29:58;4.57;;;2.60;;
3217;SDS011;1621;49.702;8.618;2023-04-15T05:32:25;3.03;;;2.23;;
3217;SDS011;1621;49.702;8.618;2023-04-15T05:34:51;5.17;;;2.37;;
3217;SDS011;1621;49.702;8.618;2023-04-15T05:37:17;4.80;;;2.67;;
3217;SDS011;1621;49.702;8.618;2023-04-15T05:39:44;3.60;;;2.43;;
3217;SDS011;1621;49.702;8.618;2023-04-15T05:42:12;5.87;;;2.80;;
3217;SDS011;1621;49.702;8.618;2023-04-15T05:44:38;3.50;;;2.30;;
3217;SDS011;1621;49.702;8.618;2023-04-15T05:47:05;3.80;;;2.70;;
3217;SDS011;1621;49.702;8.618;2023-04-15T05:49:32;5.73;;;2.70;;
3217;SDS011;1621;49.702;8.618;2023-04-15T05:51:58;5.20;;;3.20;;
3217;SDS011;1621;49.702;8.618;2023-04-15T05:54:25;12.20;;;3.77;;
3217;SDS011;1621;49.702;8.618;2023-04-15T05:56:51;7.20;;;3.70;;
3217;SDS011;1621;49.702;8.618;2023-04-15T05:59:19;6.73;;;3.73;;
3217;SDS011;1621;49.702;8.618;2023-04-15T06:01:46;6.20;;;3.83;;
3217;SDS011;1621;49.702;8.618;2023-04-15T06:04:12;6.43;;;4.63;;
3217;SDS011;1621;49.702;8.618;2023-04-15T06:06:38;9.33;;;4.80;;
3217;SDS011;1621;49.702;8.618;2023-04-15T06:09:05;10.97;;;4.60;;
3217;SDS011;1621;49.702;8.618;2023-04-15T06:11:31;7.80;;;4.90;;
3217;SDS011;1621;49.702;8.618;2023-04-15T06:13:57;5.83;;;4.40;;
3217;SDS011;1621;49.702;8.618;2023-04-15T06:16:25;6.60;;;4.43;;
3217;SDS011;1621;49.702;8.618;2023-04-15T06:18:51;6.40;;;4.67;;
3217;SDS011;1621;49.702;8.618;2023-04-15T06:21:18;7.13;;;4.40;;
3217;SDS011;1621;49.702;8.618;2023-04-15T06:23:44;6.47;;;4.57;;
3217;SDS011;1621;49.702;8.618;2023-04-15T06:26:10;10.03;;;5.07;;
3217;SDS011;1621;49.702;8.618;2023-04-15T06:28:36;7.43;;;5.00;;
3217;SDS011;1621;49.702;8.618;2023-04-15T06:31:03;9.43;;;4.93;;
3217;SDS011;1621;49.702;8.618;2023-04-15T06:33:30;7.30;;;4.80;;
3217;SDS011;1621;49.702;8.618;2023-04-15T06:35:57;7.77;;;4.87;;
3217;SDS011;1621;49.702;8.618;2023-04-15T06:38:23;10.03;;;5.10;;
3217;SDS011;1621;49.702;8.618;2023-04-15T06:40:49;7.03;;;4.90;;
3217;SDS011;1621;49.702;8.618;2023-04-15T06:43:15;9.40;;;5.30;;
3217;SDS011;1621;49.702;8.618;2023-04-15T06:45:42;7.03;;;4.57;;
3217;SDS011;1621;49.702;8.618;2023-04-15T06:48:08;7.23;;;5.23;;
3217;SDS011;1621;49.702;8.618;2023-04-15T06:50:36;6.77;;;5.10;;
3217;SDS011;1621;49.702;8.618;2023-04-15T06:53:02;7.10;;;4.90;;
3217;SDS011;1621;49.702;8.618;2023-04-15T06:55:28;15.53;;;5.60;;
3217;SDS011;1621;49.702;8.618;2023-04-15T06:57:55;7.83;;;5.83;;
3217;SDS011;1621;49.702;8.618;2023-04-15T07:00:21;9.37;;;6.10;;
3217;SDS011;1621;49.702;8.618;2023-04-15T07:02:48;10.50;;;6.43;;
3217;SDS011;1621;49.702;8.618;2023-04-15T07:05:14;10.73;;;6.40;;
3217;SDS011;1621;49.702;8.618;2023-04-15T07:07:42;6.43;;;5.43;;
3217;SDS011;1621;49.702;8.618;2023-04-15T07:10:09;10.13;;;6.10;;
3217;SDS011;1621;49.702;8.618;2023-04-15T07:12:36;12.70;;;6.23;;
3217;SDS011;1621;49.702;8.618;2023-04-15T07:15:02;8.43;;;6.03;;
3217;SDS011;1621;49.702;8.618;2023-04-15T07:17:29;13.80;;;6.47;;
3217;SDS011;1621;49.702;8.618;2023-04-15T07:19:55;7.13;;;5.30;;
3217;SDS011;1621;49.702;8.618;2023-04-15T07:22:21;10.13;;;6.47;;
3217;SDS011;1621;49.702;8.618;2023-04-15T07:24:49;9.77;;;5.90;;
3217;SDS011;1621;49.702;8.618;2023-04-15T07:27:15;10.60;;;6.70;;
3217;SDS011;1621;49.702;8.618;2023-04-15T07:29:41;8.80;;;5.53;;
3217;SDS011;1621;49.702;8.618;2023-04-15T07:32:08;7.93;;;5.90;;
3217;SDS011;1621;49.702;8.618;2023-04-15T07:34:35;8.07;;;5.80;;
3217;SDS011;1621;49.702;8.618;2023-04-15T07:37:01;6.40;;;5.03;;
3217;SDS011;1621;49.702;8.618;2023-04-15T07:39:28;8.27;;;6.07;;
3217;SDS011;1621;49.702;8.618;2023-04-15T07:41:56;11.47;;;6.00;;
3217;SDS011;1621;49.702;8.618;2023-04-15T07:44:23;7.80;;;5.63;;
3217;SDS011;1621;49.702;8.618;2023-04-15T07:46:49;11.83;;;6.13;;
3217;SDS011;1621;49.702;8.618;2023-04-15T07:49:15;14.93;;;7.67;;
3217;SDS011;1621;49.702;8.618;2023-04-15T07:51:43;10.00;;;6.43;;
3217;SDS011;1621;49.702;8.618;2023-04-15T07:54:09;10.60;;;6.10;;
3217;SDS011;1621;49.702;8.618;2023-04-15T07:56:36;7.27;;;5.60;;
3217;SDS011;1621;49.702;8.618;2023-04-15T07:59:03;9.13;;;6.10;;
3217;SDS011;1621;49.702;8.618;2023-04-15T08:01:30;9.17;;;6.43;;
3217;SDS011;1621;49.702;8.618;2023-04-15T08:03:57;8.47;;;6.10;;
3217;SDS011;1621;49.702;8.618;2023-04-15T08:06:24;6.27;;;5.13;;
3217;SDS011;1621;49.702;8.618;2023-04-15T08:08:51;7.47;;;5.60;;
3217;SDS011;1621;49.702;8.618;2023-04-15T08:11:18;8.80;;;4.90;;
3217;SDS011;1621;49.702;8.618;2023-04-15T08:13:45;9.40;;;5.80;;
3217;SDS011;1621;49.702;8.618;2023-04-15T08:16:19;10.63;;;6.03;;
3217;SDS011;1621;49.702;8.618;2023-04-15T08:18:46;9.27;;;5.40;;
3217;SDS011;1621;49.702;8.618;2023-04-15T08:21:12;9.67;;;5.93;;
3217;SDS011;1621;49.702;8.618;2023-04-15T08:23:39;8.93;;;5.93;;
3217;SDS011;1621;49.702;8.618;2023-04-15T08:26:05;8.80;;;5.70;;
3217;SDS011;1621;49.702;8.618;2023-04-15T08:28:32;9.73;;;5.67;;
3217;SDS011;1621;49.702;8.618;2023-04-15T08:30:58;9.67;;;6.10;;
3217;SDS011;1621;49.702;8.618;2023-04-15T08:33:26;7.47;;;5.90;;
3217;SDS011;1621;49.702;8.618;2023-04-15T08:35:52;9.30;;;5.97;;
3217;SDS011;1621;49.702;8.618;2023-04-15T08:38:19;9.73;;;6.23;;
3217;SDS011;1621;49.702;8.618;2023-04-15T08:40:45;7.50;;;6.20;;
3217;SDS011;1621;49.702;8.618;2023-04-15T08:43:12;8.67;;;6.20;;
3217;SDS011;1621;49.702;8.618;2023-04-15T08:45:40;8.73;;;5.50;;
3217;SDS011;1621;49.702;8.618;2023-04-15T08:48:07;7.87;;;5.83;;
3217;SDS011;1621;49.702;8.618;2023-04-15T08:50:36;8.13;;;6.07;;
3217;SDS011;1621;49.702;8.618;2023-04-15T08:53:02;8.03;;;6.00;;
3217;SDS011;1621;49.702;8.618;2023-04-15T08:55:29;8.13;;;6.30;;
3217;SDS011;1621;49.702;8.618;2023-04-15T08:57:57;8.60;;;6.90;;
3217;SDS011;1621;49.702;8.618;2023-04-15T09:00:24;11.50;;;7.13;;
3217;SDS011;1621;49.702;8.618;2023-04-15T09:02:51;11.53;;;7.33;;
3217;SDS011;1621;49.702;8.618;2023-04-15T09:05:17;11.77;;;7.40;;
3217;SDS011;1621;49.702;8.618;2023-04-15T09:07:46;9.27;;;7.17;;
3217;SDS011;1621;49.702;8.618;2023-04-15T09:10:13;8.90;;;7.30;;
3217;SDS011;1621;49.702;8.618;2023-04-15T09:12:39;8.97;;;7.20;;
3217;SDS011;1621;49.702;8.618;2023-04-15T09:15:06;11.33;;;6.67;;
3217;SDS011;1621;49.702;8.618;2023-04-15T09:17:33;11.70;;;6.97;;
3217;SDS011;1621;49.702;8.618;2023-04-15T09:20:08;8.63;;;6.17;;
3217;SDS011;1621;49.702;8.618;2023-04-15T09:22:36;8.00;;;6.03;;
3217;SDS011;1621;49.702;8.618;2023-04-15T09:25:05;10.17;;;5.73;;
3217;SDS011;1621;49.702;8.618;2023-04-15T09:27:51;7.57;;;5.63;;
3217;SDS011;1621;49.702;8.618;2023-04-15T09:30:17;6.50;;;5.30;;
3217;SDS011;1621;49.702;8.618;2023-04-15T09:32:47;6.00;;;5.10;;
3217;SDS011;1621;49.702;8.618;2023-04-15T09:35:14;6.90;;;4.40;;
3217;SDS011;1621;49.702;8.618;2023-04-15T09:37:41;6.47;;;4.50;;
3217;SDS011;1621;49.702;8.618;2023-04-15T09:40:09;5.03;;;3.37;;
3217;SDS011;1621;49.702;8.618;2023-04-15T09:42:35;5.97;;;3.73;;
3217;SDS011;1621;49.702;8.618;2023-04-15T09:45:08;5.33;;;3.57;;
3217;SDS011;1621;49.702;8.618;2023-04-15T09:47:35;5.47;;;3.67;;
3217;SDS011;1621;49.702;8.618;2023-04-15T09:50:02;4.33;;;3.40;;
3217;SDS011;1621;49.702;8.618;2023-04-15T09:52:28;5.07;;;3.80;;
3217;SDS011;1621;49.702;8.618;2023-04-15T09:54:55;7.63;;;3.30;;
3217;SDS011;1621;49.702;8.618;2023-04-15T09:57:23;4.90;;;3.07;;
3217;SDS011;1621;49.702;8.618;2023-04-15T09:59:49;12.67;;;3.57;;
3217;SDS011;1621;49.702;8.618;2023-04-15T10:02:16;6.50;;;2.63;;
3217;SDS011;1621;49.702;8.618;2023-04-15T10:04:43;5.03;;;3.17;;
3217;SDS011;1621;49.702;8.618;2023-04-15T10:07:10;5.00;;;2.63;;
3217;SDS011;1621;49.702;8.618;2023-04-15T10:09:37;4.17;;;2.83;;
3217;SDS011;1621;49.702;8.618;2023-04-15T10:12:03;3.03;;;2.10;;
3217;SDS011;1621;49.702;8.618;2023-04-15T10:14:32;4.30;;;2.37;;
3217;SDS011;1621;49.702;8.618;2023-04-15T10:17:00;3.63;;;2.20;;
3217;SDS011;1621;49.702;8.618;2023-04-15T10:19:27;5.20;;;2.27;;
3217;SDS011;1621;49.702;8.618;2023-04-15T10:21:56;4.20;;;2.07;;
3217;SDS011;1621;49.702;8.618;2023-04-15T10:24:23;3.20;;;2.03;;
3217;SDS011;1621;49.702;8.618;2023-04-15T10:26:49;4.87;;;2.90;;
3217;SDS011;1621;49.702;8.618;2023-04-15T10:29:16;4.03;;;2.40;;
3217;SDS011;1621;49.702;8.618;2023-04-15T10:31:44;4.10;;;2.33;;
3217;SDS011;1621;49.702;8.618;2023-04-15T10:34:11;6.90;;;2.13;;
3217;SDS011;1621;49.702;8.618;2023-04-15T10:36:37;9.13;;;3.00;;
3217;SDS011;1621;49.702;8.618;2023-04-15T10:39:06;3.17;;;1.73;;
3217;SDS011;1621;49.702;8.618;2023-04-15T10:42:05;4.00;;;2.17;;
3217;SDS011;1621;49.702;8.618;2023-04-15T10:44:32;3.93;;;2.00;;
3217;SDS011;1621;49.702;8.618;2023-04-15T10:46:58;3.17;;;1.67;;
3217;SDS011;1621;49.702;8.618;2023-04-15T10:49:24;3.00;;;1.90;;
3217;SDS011;1621;49.702;8.618;2023-04-15T10:51:51;3.97;;;1.60;;
3217;SDS011;1621;49.702;8.618;2023-04-15T10:54:29;3.13;;;1.90;;
3217;SDS011;1621;49.702;8.618;2023-04-15T10:57:06;3.97;;;2.17;;
3217;SDS011;1621;49.702;8.618;2023-04-15T10:59:36;2.80;;;1.90;;
3217;SDS011;1621;49.702;8.618;2023-04-15T11:02:03;4.17;;;1.60;;
3217;SDS011;1621;49.702;8.618;2023-04-15T11:07:14;4.27;;;2.13;;
3217;SDS011;1621;49.702;8.618;2023-04-15T11:09:41;4.30;;;1.90;;
3217;SDS011;1621;49.702;8.618;2023-04-15T11:12:07;2.93;;;1.70;;
3217;SDS011;1621;49.702;8.618;2023-04-15T11:14:38;3.50;;;1.90;;
3217;SDS011;1621;49.702;8.618;2023-04-15T11:17:05;9.13;;;2.40;;
3217;SDS011;1621;49.702;8.618;2023-04-15T11:19:35;4.93;;;1.80;;
3217;SDS011;1621;49.702;8.618;2023-04-15T11:22:05;3.17;;;2.00;;
3217;SDS011;1621;49.702;8.618;2023-04-15T11:24:31;3.73;;;1.80;;
3217;SDS011;1621;49.702;8.618;2023-04-15T11:26:57;3.73;;;1.80;;
3217;SDS011;1621;49.702;8.618;2023-04-15T11:29:27;5.03;;;2.20;;
3217;SDS011;1621;49.702;8.618;2023-04-15T11:32:01;2.50;;;1.80;;
3217;SDS011;1621;49.702;8.618;2023-04-15T11:34:29;8.13;;;1.93;;
3217;SDS011;1621;49.702;8.618;2023-04-15T11:36:57;4.90;;;2.10;;
3217;SDS011;1621;49.702;8.618;2023-04-15T11:39:23;3.43;;;2.47;;
3217;SDS011;1621;49.702;8.618;2023-04-15T11:41:50;4.20;;;2.53;;
3217;SDS011;1621;49.702;8.618;2023-04-15T11:44:16;3.90;;;3.20;;
3217;SDS011;1621;49.702;8.618;2023-04-15T11:46:42;5.90;;;3.17;;
3217;SDS011;1621;49.702;8.618;2023-04-15T11:49:10;3.33;;;1.93;;
3217;SDS011;1621;49.702;8.618;2023-04-15T11:51:36;6.57;;;2.27;;
3217;SDS011;1621;49.702;8.618;2023-04-15T11:54:02;5.60;;;2.83;;
3217;SDS011;1621;49.702;8.618;2023-04-15T11:56:29;3.47;;;2.17;;
3217;SDS011;1621;49.702;8.618;2023-04-15T11:58:56;6.80;;;3.87;;
3217;SDS011;1621;49.702;8.618;2023-04-15T12:01:29;4.10;;;2.83;;
3217;SDS011;1621;49.702;8.618;2023-04-15T12:03:55;3.97;;;2.30;;
3217;SDS011;1621;49.702;8.618;2023-04-15T12:06:30;3.50;;;2.20;;
3217;SDS011;1621;49.702;8.618;2023-04-15T12:08:59;6.20;;;2.43;;
3217;SDS011;1621;49.702;8.618;2023-04-15T12:11:27;3.60;;;2.33;;
3217;SDS011;1621;49.702;8.618;2023-04-15T12:13:55;4.50;;;2.43;;
3217;SDS011;1621;49.702;8.618;2023-04-15T12:16:21;4.80;;;2.63;;
3217;SDS011;1621;49.702;8.618;2023-04-15T12:18:49;4.50;;;2.80;;
3217;SDS011;1621;49.702;8.618;2023-04-15T12:21:17;3.23;;;2.13;;
3217;SDS011;1621;49.702;8.618;2023-04-15T12:23:48;3.40;;;2.37;;
3217;SDS011;1621;49.702;8.618;2023-04-15T12:26:15;3.03;;;2.20;;
3217;SDS011;1621;49.702;8.618;2023-04-15T12:28:41;5.00;;;2.70;;
3217;SDS011;1621;49.702;8.618;2023-04-15T12:31:08;4.10;;;2.47;;
3217;SDS011;1621;49.702;8.618;2023-04-15T12:33:34;5.17;;;2.53;;
3217;SDS011;1621;49.702;8.618;2023-04-15T12:36:01;4.73;;;2.33;;
3217;SDS011;1621;49.702;8.618;2023-04-15T12:38:28;4.90;;;3.20;;
3217;SDS011;1621;49.702;8.618;2023-04-15T12:40:56;4.33;;;2.33;;
3217;SDS011;1621;49.702;8.618;2023-04-15T12:43:22;3.67;;;2.20;;
3217;SDS011;1621;49.702;8.618;2023-04-15T12:45:49;3.13;;;2.30;;
3217;SDS011;1621;49.702;8.618;2023-04-15T12:48:15;9.90;;;2.17;;
3217;SDS011;1621;49.702;8.618;2023-04-15T12:50:41;10.87;;;3.17;;
3217;SDS011;1621;49.702;8.618;2023-04-15T12:53:08;4.50;;;2.30;;
3217;SDS011;1621;49.702;8.618;2023-04-15T12:55:34;4.13;;;2.70;;
3217;SDS011;1621;49.702;8.618;2023-04-15T12:58:02;6.27;;;2.47;;
3217;SDS011;1621;49.702;8.618;2023-04-15T13:00:28;3.17;;;2.13;;
3217;SDS011;1621;49.702;8.618;2023-04-15T13:02:54;6.57;;;1.60;;
3217;SDS011;1621;49.702;8.618;2023-04-15T13:05:20;1.83;;;1.10;;
3217;SDS011;1621;49.702;8.618;2023-04-15T13:07:46;4.00;;;1.53;;
3217;SDS011;1621;49.702;8.618;2023-04-15T13:10:13;9.17;;;1.63;;
3217;SDS011;1621;49.702;8.618;2023-04-15T13:12:39;5.53;;;2.10;;
3217;SDS011;1621;49.702;8.618;2023-04-15T13:15:07;3.50;;;1.77;;
3217;SDS011;1621;49.702;8.618;2023-04-15T13:17:35;2.80;;;1.90;;
3217;SDS011;1621;49.702;8.618;2023-04-15T13:20:01;2.23;;;1.37;;
3217;SDS011;1621;49.702;8.618;2023-04-15T13:22:28;3.43;;;2.10;;
3217;SDS011;1621;49.702;8.618;2023-04-15T13:24:54;3.07;;;1.93;;
3217;SDS011;1621;49.702;8.618;2023-04-15T13:27:20;2.90;;;1.60;;
3217;SDS011;1621;49.702;8.618;2023-04-15T13:29:47;3.80;;;2.50;;
3217;SDS011;1621;49.702;8.618;2023-04-15T13:32:14;3.80;;;2.73;;
3217;SDS011;1621;49.702;8.618;2023-04-15T13:34:41;5.80;;;2.70;;
3217;SDS011;1621;49.702;8.618;2023-04-15T13:37:07;5.83;;;2.50;;
3217;SDS011;1621;49.702;8.618;2023-04-15T13:39:33;6.30;;;2.90;;
3217;SDS011;1621;49.702;8.618;2023-04-15T13:41:59;6.13;;;3.00;;
3217;SDS011;1621;49.702;8.618;2023-04-15T13:44:26;4.20;;;3.00;;
3217;SDS011;1621;49.702;8.618;2023-04-15T13:46:53;3.80;;;2.63;;
3217;SDS011;1621;49.702;8.618;2023-04-15T13:49:20;3.87;;;2.20;;
3217;SDS011;1621;49.702;8.618;2023-04-15T13:51:46;3.00;;;2.00;;
3217;SDS011;1621;49.702;8.618;2023-04-15T13:54:13;3.20;;;2.27;;
3217;SDS011;1621;49.702;8.618;2023-04-15T13:56:39;4.27;;;2.07;;
3217;SDS011;1621;49.702;8.618;2023-04-15T13:59:05;3.10;;;2.20;;
3217;SDS011;1621;49.702;8.618;2023-04-15T14:01:33;5.07;;;2.40;;
3217;SDS011;1621;49.702;8.618;2023-04-15T14:03:59;3.30;;;1.90;;
3217;SDS011;1621;49.702;8.618;2023-04-15T14:06:27;2.80;;;1.97;;
3217;SDS011;1621;49.702;8.618;2023-04-15T14:08:53;2.97;;;2.10;;
3217;SDS011;1621;49.702;8.618;2023-04-15T14:11:19;3.97;;;2.50;;
3217;SDS011;1621;49.702;8.618;2023-04-15T14:13:46;3.00;;;2.07;;
3217;SDS011;1621;49.702;8.618;2023-04-15T14:16:12;4.00;;;2.20;;
3217;SDS011;1621;49.702;8.618;2023-04-15T14:18:38;4.00;;;1.93;;
3217;SDS011;1621;49.702;8.618;2023-04-15T14:21:05;3.37;;;2.30;;
3217;SDS011;1621;49.702;8.618;2023-04-15T14:23:33;2.60;;;2.00;;
3217;SDS011;1621;49.702;8.618;2023-04-15T14:26:00;3.07;;;2.10;;
3217;SDS011;1621;49.702;8.618;2023-04-15T14:28:26;3.37;;;1.80;;
3217;SDS011;1621;49.702;8.618;2023-04-15T14:30:52;2.80;;;1.90;;
3217;SDS011;1621;49.702;8.618;2023-04-15T14:33:18;2.60;;;1.73;;
3217;SDS011;1621;49.702;8.618;2023-04-15T14:35:45;2.70;;;1.60;;
3217;SDS011;1621;49.702;8.618;2023-04-15T14:38:11;2.40;;;1.50;;
3217;SDS011;1621;49.702;8.618;2023-04-15T14:40:39;2.93;;;1.73;;
3217;SDS011;1621;49.702;8.618;2023-04-15T14:43:06;2.60;;;1.50;;
3217;SDS011;1621;49.702;8.618;2023-04-15T14:45:32;4.27;;;1.70;;
3217;SDS011;1621;49.702;8.618;2023-04-15T14:47:58;2.80;;;1.70;;
3217;SDS011;1621;49.702;8.618;2023-04-15T14:50:25;2.40;;;1.50;;
3217;SDS011;1621;49.702;8.618;2023-04-15T14:52:51;2.47;;;1.20;;
3217;SDS011;1621;49.702;8.618;2023-04-15T14:55:18;2.30;;;1.40;;
3217;SDS011;1621;49.702;8.618;2023-04-15T14:57:45;2.60;;;1.57;;
3217;SDS011;1621;49.702;8.618;2023-04-15T15:00:12;3.50;;;1.83;;
3217;SDS011;1621;49.702;8.618;2023-04-15T15:02:38;3.03;;;1.60;;
3217;SDS011;1621;49.702;8.618;2023-04-15T15:05:06;2.53;;;1.50;;
3217;SDS011;1621;49.702;8.618;2023-04-15T15:07:32;2.30;;;1.30;;
3217;SDS011;1621;49.702;8.618;2023-04-15T15:10:00;3.17;;;1.50;;
3217;SDS011;1621;49.702;8.618;2023-04-15T15:12:26;2.30;;;1.33;;
3217;SDS011;1621;49.702;8.618;2023-04-15T15:14:54;2.03;;;1.20;;
3217;SDS011;1621;49.702;8.618;2023-04-15T15:17:21;2.60;;;1.60;;